Terminal Aerodrome Forecast
Issued by NWS

Home | Current Version | Previous Version | Text Only | Print | Product List | Glossary On
Versions: 1 2 3 4 5 6 7 8 9 10 11 12 13 14 15 16 17 18 19 20 21 22 23 24 25 26 27 28 29 30 31 32 33 34 35 36 37
000
FTUS45 KBOU 271907 AAB
TAFBJC
TAF AMD
KBJC 271907Z 2719/2818 07008KT P6SM SCT035 BKN080
     FM272100 03010G18KT P6SM VCSH SCT030 BKN045
     FM280100 06010KT P6SM BKN025 BKN040 OVC050
     FM280700 VRB05KT P6SM SCT012 BKN022 BKN035
     FM281100 34007KT P6SM VCFG BKN012 BKN025
      TEMPO 2811/2815 4SM BR BKN008
     FM281700 08006KT P6SM BKN030 BKN050=

USA.gov is the U.S. government's official web portal to all federal, state and local government web resources and services.